Wichita, KS (67201)

1:02 PM CDT on October 02, 2014 (GMT -0500)
25th PERRY Wichita | Change Station
CLOSE
Current Station
Personal Weather Station
Location: WICHITA, KS
Elevation: 1298 ft
Nearby Weather Stations

Elev 1298 ft 37.73 °N, 97.36 °W | Updated 5 seconds ago

Mostly Cloudy
Mostly Cloudy
68.2 °F
Feels Like 68.2 °F
N
5.0
Wind Variable Wind from SE
Gusts 8.0 mph

Today
High -- | Low -- °F
--% Chance of Precip.
Yesterday
High -- | Low -- °F
Precip. -- in
7:25 AM 7:10 PM
First Quarter, 61% visible
Pressure 29.79 in
Visibility 10.0 miles
Clouds Few 5000 ft
Mostly Cloudy 7000 ft
Dew Point 58 °F
Humidity 71%
Rainfall 0.14 in
Snow Depth Not available.
UV 4 out of 12
Pollen .50 out of 12
Air Quality Not available.
Flu Activity Not available.
METAR KICT 021753Z 35013KT 10SM FEW050 BKN070 21/13 A2982 RMK AO2 SLP086 60015 T02060128 10217 20167 50014

More Conditions Fewer Conditions

Pressure 29.79 in
Visibility 10.0 miles
Clouds Few 5000 ft
Mostly Cloudy 7000 ft
Dew Point 58 °F
Humidity 71%
Rainfall 0.14 in
Snow Depth Not available.
UV 4 out of 12
Pollen .50 out of 12
Air Quality Not available.
Flu Activity Not available.
METAR KICT 021753Z 35013KT 10SM FEW050 BKN070 21/13 A2982 RMK AO2 SLP086 60015 T02060128 10217 20167 50014

More Conditions Fewer Conditions

10-Day Weather Forecast

Almanac

Astronomy

Oct. 02, 2014 Rise Set
Actual Time 7:25 AM CDT 7:10 PM CDT
Civil Twilight 6:59 AM CDT 7:37 PM CDT
Nautical Twilight 6:29 AM CDT 8:07 PM CDT
Astronomical Twilight 5:58 AM CDT 8:37 PM CDT
Moon 3:12 PM CDT 12:50 AM CDT
Length of Visible Light 12h 37m
Length of Day
11h 45m
Tomorrow will be 2m 24s shorter.
First Quarter, 61% of the Moon is Illuminated
Today
First Quarter
Oct 8
Full
Oct 15
Last Quarter
Oct 23
New
Oct 30
First Quarter

Today's Extremes

State Highs State Lows

Community

WunderPhotos

Upload Photos

1,758,316 photos uploaded!

WunderBlogs® & News

Nearby

Snow Depth

Station Depth Elevation
No new snow has been reported.

Earthquake Activity

City Distance Mag. Time & Date
Perry, Oklahoma 104 miles 2.6 8:20 PM CDT
2014-10-01
Guthrie, Oklahoma 127 miles 3.0 5:15 PM CDT
2014-10-01
Perry, Oklahoma 90 miles 2.8 4:17 PM CDT
2014-10-01
Medford, Oklahoma 73 miles 3.6 1:18 PM CDT
2014-10-01
Minimum magnitude displayed is 2.5.

Coastal Water Temperatures

Place Temperature
No Stations Reporting

Nearby Weather Stations